Tiempo atmosférico en la estación meteorológica de Baza, Granada (801 m.)



Fecha
DESCASC
Temp. máxima en grados centígrados (hora)
DESCASC
Temp. mínima en grados centígrados (hora)
DESCASC
Temp. media en grados centígrados
DESCASC
Racha de viento máxima en m/sg (hora)
DESCASC
Velocidad máxima media en intervalos de 10 minutos(hora)
DESCASC
Precipitaciones diarias en mm
DESCASC
Precipitaciones de 00:00 a 06:00 en mm
DESCASC
Precipitaciones de 06:00 a 12:00 en mm
DESCASC
Precipitaciones de 12:00 a 18:00 en mm
DESCASC
Precipitaciones de 18:00 a 24:00 en mm
DESCASC
20-01-2019 9.6 (13:50) 5.8 (23:59) 7.7 13.33 (14:20) 8.89 (15:20) 5.6 2.6 3 0 0
19-01-2019 10.9 (13:50) 1.9 (05:00) 6.4 10.28 (07:40) 6.11 (07:40) 0 0 0 0 0
18-01-2019 10.6 (14:50) -3.3 (-00:0) 3.7 8.89 (16:10) 6.11 (16:20) 0 0 0 0 0
17-01-2019 10.1 (15:00) -1.4 (-00:0) 4.4 8.33 (12:10) 5.28 (12:10) 0 0 0 0 0
16-01-2019 10.1 (16:30) -1.4 (-00:0) 4.4 7.5 (15:40) 4.72 (15:40) 0 0 0 0 0
15-01-2019 16.4 (15:00) -3.9 (-00:0) 6.2 6.67 (15:10) 4.17 (15:10) 0 0 0 0 0
14-01-2019 16.3 (15:30) -4.4 (-00:0) 5.9 8.33 (15:50) 5 (16:20) 0 0 0 0 0
13-01-2019 14 (16:20) -7.5 (-00:0) 3.3 9.17 (15:00) 5.83 (15:00) -- -- 0 0 0
12-01-2019 13.3 (17:30) -8.6 (-00:0) 2.3 4.17 (20:10) 3.33 (20:10) 0 0 0 0 0
11-01-2019 9.1 (17:40) -7.5 (-00:0) 0.8 4.72 (19:20) 3.33 (20:40) 0 0 0 0 0
10-01-2019 11 (14:20) -2 (-00:0) 4.5 11.67 (15:10) 8.06 (16:00) 0 0 0 0 0
09-01-2019 13.9 (15:00) -4.3 (-00:0) 4.8 11.67 (17:30) 6.94 (17:30) 0 0 0 0 0
08-01-2019 13.3 (16:20) -5.5 (-00:0) 3.9 5.83 (16:30) 3.06 (16:20) 0 0 0 0 0
07-01-2019 14 (15:40) -6.8 (-00:0) 3.6 4.17 (22:30) 3.61 (22:30) 0 0 0 0 0
06-01-2019 14.5 (16:10) -6.4 (-00:0) 4 8.61 (15:30) 5 (15:40) 0 0 0 0 0
05-01-2019 13.5 (17:40) -6.4 (-00:0) 3.5 4.44 (20:40) 2.78 (20:40) 0 0 0 0 0
04-01-2019 12.1 (15:20) -2.9 (-00:0) 4.6 3.89 (20:10) 3.06 (20:10) 0 0 0 0 0
03-01-2019 13 (14:30) -5.3 (-00:0) 3.8 7.5 (15:20) 5 (15:20) 0 0 0 0 0
02-01-2019 16.4 (15:00) -4.1 (-00:0) 6.1 8.61 (16:30) 5.56 (15:20) 0 0 0 0 0
01-01-2019 16.3 (16:30) -4.6 (-00:0) 5.8 5.56 (16:40) 3.61 (19:10) 0 0 0 0 0
31-12-2018 18.1 (14:50) -3.4 (-00:0) 7.4 7.5 (15:20) 4.72 (15:20) 0 0 0 0 0
30-12-2018 13.6 (15:20) 0 (00:00) 6.8 7.22 (14:00) 4.44 (17:10) 0.2 0.2 0 0 0
29-12-2018 8 (15:30) 2.4 (00:00) 5.2 5.83 (19:40) 2.78 (19:40) 1.4 0 0.2 0.8 0.4
28-12-2018 13.2 (15:40) -4 (-00:0) 4.6 6.94 (17:40) 3.89 (17:30) 0 0 0 0 0
27-12-2018 15.1 (16:30) -3.4 (-00:0) 5.9 5.56 (17:00) 3.61 (18:50) 0 0 0 0 0
26-12-2018 16.6 (15:30) -2.4 (-00:0) 7.1 5 (15:30) 2.78 (11:10) 0 0 0 0 0
25-12-2018 16.8 (15:20) -0.2 (00:00) 8.3 7.78 (16:00) 4.72 (16:20) 0 0 0 0 0
24-12-2018 16.9 (14:50) -2.2 (07:50) 7.3 3.61 (19:20) 2.78 (18:50) 0 0 0 0 0
23-12-2018 17.2 (17:30) -3.1 (-00:0) 7.1 4.44 (19:20) 3.33 (19:10) 0 0 0 0 0

Gráficas

Temp. máximas Temp. mínimas Temp. medias Precipitaciones Rachas de viento máximas Velocidades máximas media en intervalos de 10 minutos

Datos horarios

Fecha y hora oficial Temperatura (ºC) Velocidad del viento (km/h) Dirección del viento Racha (km/h) Dirección de racha Precipitación (mm) Presión (hPa) Tendencia (hPa) Humedad (%)
2019-01-21 23:00:00 3.5 13 Oeste 28 Oeste 0 929.2 0.7 65
2019-01-21 22:00:00 3.5 12 Sudoeste 21 Oeste 0 929 0.6 66
2019-01-21 21:00:00 3.9 14 Oeste 26 Oeste 0 928.7 0.6 66
2019-01-21 20:00:00 4.5 14 Oeste 22 Oeste 0 928.5 0.6 65
2019-01-21 19:00:00 5 11 Oeste 28 Oeste 0 928.4 0.6 65
2019-01-21 18:00:00 6.5 18 Oeste 28 Oeste 0 928.1 0.4 58
2019-01-21 17:00:00 8.3 19 Oeste 38 Noroeste 0 927.9 0 48
2019-01-21 16:00:00 7.8 23 Oeste 39 Oeste 0 927.8 -0.7 52
2019-01-21 15:00:00 8.4 22 Oeste 39 Oeste 0 927.7 -1.2 56
2019-01-21 14:00:00 8 24 Oeste 37 Oeste 0 927.9 -0.8 54
2019-01-21 13:00:00 7.7 22 Oeste 35 Oeste 0 928.5 0.3 55
2019-01-21 12:00:00 6.5 23 Oeste 35 Oeste 0 928.9 1 61
2019-01-21 11:00:00 5.5 19 Oeste 28 Oeste 0 928.7 1.2 65
2019-01-21 10:00:00 4.6 19 Oeste 29 Oeste 0 928.2 1.2 68
2019-01-21 09:00:00 3.3 14 Oeste 22 Oeste 0 927.9 1.1 73
2019-01-21 08:00:00 2.9 13 Oeste 28 Oeste 0 927.5 0.9 75
2019-01-21 07:00:00 3.2 17 Oeste 28 Oeste 0 927 0.1 74
2019-01-21 06:00:00 3.2 14 Oeste 23 Oeste 0 926.8 -0.2 76
2019-01-21 05:00:00 3.7 13 Oeste 24 Oeste 0 926.6 -0.1 73
2019-01-21 04:00:00 3.9 14 Oeste 20 Oeste 0 926.9 0.4 73
2019-01-21 03:00:00 4.7 15 Oeste 27 Oeste 0 927 0.6 69
2019-01-21 02:00:00 4.8 16 Oeste 27 Oeste 0 926.7 0.6 69
2019-01-21 01:00:00 5 15 Oeste 32 Oeste 0 926.5 0.8 70
2019-01-21 00:00:00 5.8 17 Oeste 27 Oeste 0 926.4 1.6 69
2019-01-20 23:00:00 6.1 18 Oeste 28 Oeste 0 926.1 1.6 67
2019-01-20 22:00:00 6.2 17 Oeste 34 Oeste 0 925.7 2.3 68
2019-01-20 21:00:00 6.6 21 Oeste 30 Oeste 0 924.8 2 66
2019-01-20 20:00:00 6.7 21 Oeste 32 Oeste 0 924.5 2 70
2019-01-20 19:00:00 6.8 20 Oeste 36 Oeste 0 923.4 1.9 73
2019-01-20 18:00:00 7.8 23 Oeste 39 Oeste 0 922.8 2.1 70
2019-01-20 17:00:00 7.6 24 Oeste 37 Oeste 0 922.5 2.2 73
2019-01-20 16:00:00 7.8 22 Oeste 44 Oeste 0 921.5 1.2 75
2019-01-20 15:00:00 8.1 27 Oeste 48 Oeste 0 920.7 0.6 78
2019-01-20 14:00:00 9 28 Oeste 46 Oeste 0 920.3 0.8 78
2019-01-20 13:00:00 8.6 22 Oeste 46 Oeste 0 920.3 1.4 87
2019-01-20 12:00:00 8.5 25 Oeste 41 Oeste 0 920.1 1.2 89
2019-01-20 11:00:00 8 17 Oeste 31 Oeste 0.4 919.5 1 90
2019-01-20 10:00:00 7.2 10 Oeste 20 Oeste 2 918.9 0.6 97
2019-01-20 09:00:00 7.1 16 Noroeste 29 Oeste 0.6 918.9 0.4 94
2019-01-20 08:00:00 8.1 19 Oeste 32 Oeste 0 918.5 -0.3 81
2019-01-20 07:00:00 7.9 15 Oeste 35 Oeste 0 918.3 -1.5 83
2019-01-20 06:00:00 6.6 10 Noroeste 18 Oeste 0 918.5 -1.6 84
2019-01-20 05:00:00 6.6 7 Noroeste 17 Oeste 0 918.8 -2.4 84
2019-01-20 04:00:00 7.1 5 Oeste 15 Noroeste 0 919.8 -1.9 87
2019-01-20 03:00:00 7.6 9 Sudoeste 30 Sudoeste 0.8 920.1 -2.2 83
2019-01-20 02:00:00 6.5 4 Nordeste 10 Nordeste 1.2 921.2 -1.4 95
2019-01-20 01:00:00 6.4 4 Nordeste 16 Noroeste 0.6 921.7 -1.2 90
2019-01-20 00:00:00 7 5 Noroeste 10 Noroeste 0 922.3 -1.1 80
2019-01-19 23:00:00 7.1 5 Norte 12 Noroeste 0 922.6 -1 75
2019-01-19 22:00:00 6.9 8 Noroeste 17 Noroeste 0 922.9 -0.6 74
2019-01-19 21:00:00 7.3 11 Norte 17 Norte 0 923.4 -0.8 69
2019-01-19 20:00:00 6.5 6 Norte 17 Norte 0 923.6 -0.6 69
2019-01-19 19:00:00 7.3 8 Norte 17 Noroeste 0 923.5 -0.5 64
2019-01-19 18:00:00 8.4 10 Noroeste 27 Noroeste 0 924.2 0.1 60
2019-01-19 17:00:00 9.5 15 Noroeste 31 Oeste 0 924.2 -0.8 52
2019-01-19 16:00:00 9.7 16 Noroeste 26 Oeste 0 924 -2 51
2019-01-19 15:00:00 10.2 16 Noroeste 28 Noroeste 0 924.1 -2.7 51
2019-01-19 14:00:00 10.6 16 Noroeste 26 Noroeste 0 925 -2 48
2019-01-19 13:00:00 9.7 16 Oeste 24 Oeste 0 926 -0.6 51
2019-01-19 12:00:00 7.9 15 Noroeste 23 Oeste 0 926.8 0.4 57
2019-01-19 11:00:00 6 13 Oeste 26 Oeste 0 927 0.7 68
2019-01-19 10:00:00 4.7 14 Oeste 35 Oeste 0 926.6 0.7 72
2019-01-19 09:00:00 4.5 19 Oeste 30 Oeste 0 926.4 0.6 71
2019-01-19 08:00:00 4.4 16 Oeste 37 Oeste 0 926.3 0.1 72
2019-01-19 07:00:00 2.6 15 Oeste 22 Oeste 0 925.9 -0.6 78
2019-01-19 06:00:00 2.8 11 Noroeste 18 Noroeste 0 925.8 -0.8 77
2019-01-19 05:00:00 2 4 Norte 10 Este 0 926.2 -0.8 80
2019-01-19 04:00:00 2.3 4 Nordeste 9 Oeste 0 926.5 -0.9 75
2019-01-19 03:00:00 3.5 6 Oeste 16 Oeste 0 926.6 -0.9 69
2019-01-19 02:00:00 2.6 5 Oeste 10 Oeste 0 927 -0.3 73
2019-01-19 01:00:00 2.4 4 Sudoeste 9 Oeste 0 927.4 0.5 74
2019-01-19 00:00:00 3.2 3 Oeste 8 Oeste 0 927.5 0.6 70
2019-01-18 23:00:00 5.1 4 Oeste 9 Oeste 0 927.3 0.5 63
2019-01-18 22:00:00 5.9 4 Noroeste 9 Oeste 0 926.9 0.5 59
2019-01-18 21:00:00 6 3 Sudoeste 15 Oeste 0 926.9 0.6 57
2019-01-18 20:00:00 6.5 9 Oeste 14 Oeste 0 926.8 0.5 57
2019-01-18 19:00:00 7.4 8 Oeste 19 Oeste 0 926.4 0 54
2019-01-18 18:00:00 8.1 11 Oeste 23 Oeste 0 926.3 -0.1 52
2019-01-18 17:00:00 8.7 16 Oeste 32 Oeste 0 926.3 -0.8 49
2019-01-18 16:00:00 9.6 19 Oeste 30 Oeste 0 926.4 -1.5 46
2019-01-18 15:00:00 10.6 14 Noroeste 26 Oeste 0 926.4 -2.1 43
2019-01-18 14:00:00 9.9 15 Noroeste 25 Oeste 0 927.1 -1.5 47
2019-01-18 13:00:00 7.5 8 Norte 14 Noroeste 0 927.9 -0.7 58
2019-01-18 12:00:00 4.5 5 Noroeste 9 Noroeste 0 928.5 0.3 69
2019-01-18 11:00:00 1.5 4 Oeste 8 Noroeste 0 928.6 0.5 87
2019-01-18 10:00:00 -1.2 6 Norte 9 Noroeste 0 928.6 1.1 96
2019-01-18 09:00:00 -3.3 6 Sur 8 Sudeste 0 928.2 1.1 94
2019-01-18 08:00:00 -2.4 3 Sur 8 Noroeste 0 928.1 1 90
2019-01-18 07:00:00 -1 4 Noroeste 9 Noroeste 0 927.5 -0.1 90
2019-01-18 06:00:00 -0.5 3 Noroeste 7 Noroeste 0 927.1 -0.4 90
2019-01-18 05:00:00 -0.6 7 Sudeste 9 Sudeste 0 927.1 -0.3 95
2019-01-18 04:00:00 -1.9 7 Sur 12 Sudeste 0 927.6 0.1 93
2019-01-18 03:00:00 -1.3 8 Sur 12 Sur 0 927.5 -0.3 90
2019-01-18 02:00:00 0.3 5 Norte 10 Noroeste 0 927.4 -0.1 82
2019-01-18 01:00:00 1.9 3 Oeste 7 Noroeste 0 927.5 0.5 78
2019-01-18 00:00:00 3.8 6 Noroeste 10 Noroeste 0 927.8 1.3 71
2019-01-17 23:00:00 4.7 4 Sudeste 21 Oeste 0 927.5 1.6 67
2019-01-17 22:00:00 4.7 10 Oeste 15 Oeste 0 927 1.6 69
2019-01-17 21:00:00 2 3 Sudoeste 12 Sudoeste 0 926.5 1.6 76
2019-01-17 20:00:00 5.1 8 Sudoeste 15 Oeste 0 925.9 1.1 64
2019-01-17 19:00:00 6.3 10 Oeste 15 Oeste 0 925.4 0.6 59
2019-01-17 18:00:00 8.5 10 Noroeste 21 Noroeste 0 924.9 -0.2 51
2019-01-17 17:00:00 9 12 Noroeste 23 Noroeste 0 924.8 -0.7 50
2019-01-17 16:00:00 9.3 15 Noroeste 24 Oeste 0 924.8 -1.5 49
2019-01-17 15:00:00 9.6 18 Oeste 27 Noroeste 0 925.1 -1.8 48
2019-01-17 14:00:00 8.7 16 Noroeste 28 Noroeste 0 925.5 -1.2 59
2019-01-17 13:00:00 9.1 18 Oeste 30 Oeste 0 926.3 0.3 59
2019-01-17 12:00:00 7.6 18 Oeste 27 Oeste 0 926.9 1 71
2019-01-17 11:00:00 5.9 12 Noroeste 21 Noroeste 0 926.7 0.9 78
2019-01-17 10:00:00 1.1 2 Sudeste 9 Sur 0 926 0.6 97
2019-01-17 09:00:00 -1.2 8 Sur 11 Sudeste 0 925.9 0.5 96
2019-01-17 08:00:00 -1.2 8 Sur 11 Sur 0 925.8 0.2 95
2019-01-17 07:00:00 -0.8 8 Sur 12 Sur 0 925.4 -0.6 95
2019-01-17 06:00:00 -0.1 7 Sur 10 Sudeste 0 925.4 -1 95
2019-01-17 05:00:00 0.9 6 Sur 12 Sur 0 925.6 -1 95
2019-01-17 04:00:00 1.5 2 Oeste 6 Este 0 926 -1 95
2019-01-17 03:00:00 1.4 5 Sudoeste 10 Oeste 0 926.4 -0.9 96
2019-01-17 02:00:00 1.1 4 Sudeste 9 Este 0 926.6 -0.9 94
2019-01-17 01:00:00 1.2 6 Sudeste 8 Sudeste 0 927 -0.3 91
2019-01-17 00:00:00 2.6 0 Calma 8 Sudoeste 0 927.3 0.2 88
2019-01-16 23:00:00 3.1 2 Sudeste 9 Oeste 0 927.5 0.7 88
2019-01-16 22:00:00 4 3 Oeste 9 Sudoeste 0 927.3 0.8 83
2019-01-16 21:00:00 4.9 8 Oeste 17 Oeste 0 927.1 0.8 80
2019-01-16 20:00:00 5.5 8 Oeste 19 Oeste 0 926.8 0.4 78
2019-01-16 19:00:00 6.5 14 Oeste 20 Oeste 0 926.5 -0.2 73
2019-01-16 18:00:00 8.3 11 Oeste 23 Oeste 0 926.3 -0.7 66
2019-01-16 17:00:00 9.7 15 Noroeste 25 Noroeste 0 926.4 -1.3 61
2019-01-16 16:00:00 9.7 16 Noroeste 27 Noroeste 0 926.7 -1.9 61
2019-01-16 15:00:00 9.7 13 Noroeste 23 Noroeste 0 927 -2.6 63
2019-01-16 14:00:00 7.7 11 Norte 19 Noroeste 0 927.7 -1.9 75
2019-01-16 13:00:00 4 4 Norte 9 Norte 0 928.6 -0.9 99